CheckWX is a tool to help pilots better visualize weather data.  It is not intended as a substitute for an official pre-flight weather briefing.

21:06:07 UTC

KLWT METAR
Lewistown Municipal Airport
Lewistown, Montana, USA
Current

12 mins ago

KLWT 232054Z AUTO 31010KT 3SM -SN FEW016 OVC024 M14/M17 A3009 RMK AO2 SLP255 P0000 60000 T11391167 51047
Observed
Feb-23 @ 20:54 UTC
Wind
  • 310° at 10 KTS
Visibility
3 SM
Flight Rules
MVFR
Conditions
Light Snow
Cloud Levels
  • Few at 1,600' AGL
  • Overcast at 2,400' AGL
Temperature
-14°C / 7°F
Dewpoint
-17°C / 1°F
Humidity
78%
Altimeter
30.09" Hg
Pressure
1025.5 hPa
Current Rain
0.01"
Previous

57 mins ago

KLWT 232009Z AUTO 29017G25KT 1 1/4SM -SN FEW010 OVC021 M14/M17 A3006 RMK AO2 P0000 T11391167
Observed
Feb-23 @ 20:09 UTC
Wind
  • 290° at 17 KTS
  • Gusting to 25 KTS
Visibility
1 1/4 SM
Flight Rules
IFR
Conditions
Light Snow
Cloud Levels
  • Few at 1,000' AGL
  • Overcast at 2,100' AGL
Temperature
-14°C / 7°F
Dewpoint
-17°C / 1°F
Humidity
78%
Altimeter
30.06" Hg
Pressure
1017.92 hPa
Current Rain
0.01"
Previous

1 hour ago

KLWT 231957Z AUTO 30014KT 2 1/2SM -SN FEW008 BKN017 OVC025 M14/M17 A3007 RMK AO2 P0000 T11391167
Observed
Feb-23 @ 19:57 UTC
Wind
  • 300° at 14 KTS
Visibility
2 1/2 SM
Flight Rules
IFR
Conditions
Light Snow
Cloud Levels
  • Few at 800' AGL
  • Broken at 1,700' AGL
  • Overcast at 2,500' AGL
Temperature
-14°C / 7°F
Dewpoint
-17°C / 1°F
Humidity
78%
Altimeter
30.07" Hg
Pressure
1018.32 hPa
Current Rain
0.01"